Terminal Aerodrome Forecast
Issued by NWS

Home | Current Version | Previous Version | Graphics & Text | Print | Product List | Glossary On
Versions: 1 2 3 4 5 6 7 8 9 10 11 12 13 14 15 16 17 18 19
354
FTUS43 KGRB 241143
TAFMTW
TAF
KMTW 241143Z 2412/2512 VRB03KT P6SM OVC025
     FM241600 09007KT P6SM BKN030
     FM242200 08010G17KT P6SM BKN080
     FM250200 08016G28KT 5SM -RAPL BR BKN020
     FM250500 10012G25KT 1 1/2SM RA BR OVC003
     FM251000 23015G25KT 1 1/2SM -RASN OVC008=

USA.gov is the U.S. government's official web portal to all federal, state and local government web resources and services.